createdAt,value
2022-09-06T00:01:09.931Z,9.25
2022-09-06T00:02:43.992Z,10.43
2022-09-06T00:04:17.259Z,9.77
2022-09-06T00:07:22.977Z,9.93
2022-09-06T00:08:56.098Z,16.92
2022-09-06T00:10:30.216Z,10.65
2022-09-06T00:12:03.303Z,9.27
2022-09-06T00:13:38.285Z,8.95
2022-09-06T00:15:11.011Z,10.45
2022-09-06T00:16:43.950Z,9.82
2022-09-06T00:18:19.448Z,9.52
2022-09-06T00:19:52.767Z,11.18
2022-09-06T00:22:59.777Z,9.90
2022-09-06T00:26:06.188Z,11.07
2022-09-06T00:27:39.226Z,12.60
2022-09-06T00:29:13.549Z,10.63
2022-09-06T00:30:45.627Z,11.10
2022-09-06T00:32:18.707Z,12.95
2022-09-06T00:33:52.170Z,12.43
2022-09-06T00:35:27.231Z,10.68
2022-09-06T00:37:00.160Z,9.48
2022-09-06T00:38:33.585Z,7.85
2022-09-06T00:40:07.796Z,9.45
2022-09-06T00:41:41.113Z,7.90
2022-09-06T00:44:49.228Z,9.05
2022-09-06T00:46:25.423Z,12.25
2022-09-06T00:48:00.088Z,13.43
2022-09-06T00:49:35.948Z,10.55
2022-09-06T00:51:12.361Z,10.45
2022-09-06T00:52:47.546Z,11.85
2022-09-06T00:54:20.630Z,8.10
2022-09-06T00:55:54.002Z,7.70
2022-09-06T00:57:28.994Z,9.63
2022-09-06T00:59:02.266Z,9.65
2022-09-06T01:02:09.542Z,7.87
2022-09-06T01:03:43.132Z,8.90
2022-09-06T01:05:17.412Z,9.23
2022-09-06T01:06:59.000Z,9.57
2022-09-06T01:08:43.524Z,10.82
2022-09-06T01:10:45.006Z,10.82
2022-09-06T01:12:34.541Z,8.90
2022-09-06T01:14:20.358Z,10.30
2022-09-06T01:16:04.011Z,10.45
2022-09-06T01:19:52.430Z,9.77
2022-09-06T01:21:38.756Z,9.73
2022-09-06T01:24:10.680Z,8.15
2022-09-06T01:25:52.436Z,9.80
2022-09-06T01:28:14.550Z,8.80
2022-09-06T01:29:51.181Z,9.32
2022-09-06T01:31:31.946Z,8.80
2022-09-06T01:33:13.717Z,9.32
2022-09-06T01:34:53.577Z,11.13
2022-09-06T01:36:30.775Z,9.32
2022-09-06T01:38:05.105Z,9.38
2022-09-06T01:39:38.255Z,10.48
2022-09-06T01:42:46.527Z,10.00
2022-09-06T01:44:24.260Z,10.35
2022-09-06T01:46:04.548Z,10.05
2022-09-06T01:47:46.143Z,8.63
2022-09-06T01:49:32.293Z,9.82
2022-09-06T01:51:17.266Z,8.02
2022-09-06T01:53:00.272Z,7.90
2022-09-06T01:54:45.232Z,9.32
2022-09-06T01:56:31.530Z,9.20
2022-09-06T01:58:20.756Z,10.43
2022-09-06T02:00:08.465Z,8.88
2022-09-06T02:01:52.005Z,8.65
2022-09-06T02:03:32.706Z,9.15
2022-09-06T02:05:11.537Z,9.63
2022-09-06T02:06:49.879Z,9.75
2022-09-06T02:08:27.203Z,9.77
2022-09-06T02:10:07.109Z,12.40
2022-09-06T02:11:43.609Z,8.25
2022-09-06T02:13:18.437Z,11.93
2022-09-06T02:14:57.868Z,11.20
2022-09-06T02:16:36.616Z,11.23
2022-09-06T02:18:13.183Z,9.45
2022-09-06T02:19:48.635Z,11.85
2022-09-06T02:21:27.109Z,12.68
2022-09-06T02:23:04.059Z,10.18
2022-09-06T02:24:40.690Z,11.10
2022-09-06T02:26:18.486Z,8.85
2022-09-06T02:27:51.631Z,9.63
2022-09-06T02:29:24.954Z,10.88
2022-09-06T02:31:02.572Z,10.43
2022-09-06T02:32:41.581Z,10.95
2022-09-06T02:34:16.196Z,9.95
2022-09-06T02:35:52.350Z,9.57
2022-09-06T02:37:26.789Z,11.43
2022-09-06T02:39:01.228Z,10.80
2022-09-06T02:40:34.258Z,8.95
2022-09-06T02:42:10.104Z,10.95
2022-09-06T02:43:43.950Z,13.60
2022-09-06T02:45:16.174Z,13.50
2022-09-06T02:46:50.338Z,13.50
2022-09-06T02:48:26.065Z,12.48
2022-09-06T02:49:59.114Z,14.98
2022-09-06T02:51:32.281Z,12.73
2022-09-06T02:54:39.248Z,12.20
2022-09-06T02:56:12.605Z,13.43
2022-09-06T02:57:45.680Z,12.45
2022-09-06T02:59:18.641Z,9.60
2022-09-06T03:00:52.814Z,13.15
2022-09-06T03:02:25.904Z,11.23
2022-09-06T03:04:00.773Z,10.02
2022-09-06T03:05:33.098Z,9.40
2022-09-06T03:07:06.121Z,10.10
2022-09-06T03:08:39.101Z,10.75
2022-09-06T03:10:12.029Z,11.52
2022-09-06T03:11:45.143Z,10.63
2022-09-06T03:14:54.672Z,12.20
2022-09-06T03:16:28.234Z,9.80
2022-09-06T03:19:34.437Z,11.50
2022-09-06T03:21:07.623Z,12.80
2022-09-06T03:24:15.069Z,11.25
2022-09-06T03:25:47.431Z,11.98
2022-09-06T03:27:20.700Z,9.68
2022-09-06T03:30:27.659Z,10.00
2022-09-06T03:32:00.641Z,10.70
2022-09-06T03:33:33.646Z,12.07
2022-09-06T03:35:09.253Z,9.60
2022-09-06T03:36:42.364Z,10.63
2022-09-06T03:38:14.383Z,11.75
2022-09-06T03:39:47.374Z,11.73
2022-09-06T03:41:20.411Z,12.00
2022-09-06T03:42:53.513Z,10.48
2022-09-06T03:44:25.539Z,14.13
2022-09-06T03:45:59.186Z,12.38
2022-09-06T03:47:32.264Z,10.50
2022-09-06T03:49:05.227Z,9.95
2022-09-06T03:50:39.575Z,10.90
2022-09-06T03:52:12.589Z,9.73
2022-09-06T03:53:45.567Z,12.88
2022-09-06T03:55:18.839Z,11.93
2022-09-06T03:58:25.407Z,11.13
2022-09-06T03:59:57.505Z,12.23
2022-09-06T04:01:30.904Z,10.10
2022-09-06T04:03:02.963Z,11.70
2022-09-06T04:04:36.114Z,12.23
2022-09-06T04:06:10.763Z,12.20
2022-09-06T04:07:44.510Z,11.80
2022-09-06T04:09:17.456Z,11.95
2022-09-06T04:10:51.916Z,12.25
2022-09-06T04:12:24.895Z,12.68
2022-09-06T04:13:57.975Z,14.40
2022-09-06T04:15:29.930Z,13.30
2022-09-06T04:17:02.941Z,14.00
2022-09-06T04:18:36.077Z,13.35
2022-09-06T04:20:10.455Z,13.18
2022-09-06T04:21:45.037Z,13.48
2022-09-06T04:23:18.946Z,13.32
2022-09-06T04:24:53.323Z,13.30
2022-09-06T04:26:26.258Z,13.05
2022-09-06T04:27:58.410Z,13.88
2022-09-06T04:29:31.479Z,11.75
2022-09-06T04:31:05.654Z,14.48
2022-09-06T04:32:38.654Z,16.52
2022-09-06T04:34:11.638Z,16.17
2022-09-06T04:35:49.044Z,13.63
2022-09-06T04:37:23.349Z,15.50
2022-09-06T04:38:56.701Z,14.18
2022-09-06T04:40:29.844Z,13.88
2022-09-06T04:42:02.939Z,16.95
2022-09-06T04:43:35.983Z,17.55
2022-09-06T04:45:10.229Z,12.80
2022-09-06T04:46:44.262Z,13.88
2022-09-06T04:48:19.345Z,18.10
2022-09-06T04:49:52.363Z,14.75
2022-09-06T04:51:26.225Z,15.18
2022-09-06T04:53:00.527Z,18.65
2022-09-06T04:54:34.604Z,17.95
2022-09-06T04:56:07.734Z,15.38
2022-09-06T04:57:44.546Z,15.50
2022-09-06T04:59:19.667Z,14.18
2022-09-06T05:00:52.719Z,15.48
2022-09-06T05:02:26.395Z,14.52
2022-09-06T05:03:59.771Z,13.98
2022-09-06T05:05:32.946Z,15.05
2022-09-06T05:08:42.287Z,17.63
2022-09-06T05:10:15.574Z,18.08
2022-09-06T05:11:47.696Z,15.43
2022-09-06T05:13:20.704Z,16.38
2022-09-06T05:14:53.721Z,13.23
2022-09-06T05:16:26.800Z,15.98
2022-09-06T05:18:04.371Z,17.10
2022-09-06T05:19:37.362Z,17.85
2022-09-06T05:21:10.389Z,15.30
2022-09-06T05:22:43.477Z,17.83
2022-09-06T05:24:17.819Z,16.60
2022-09-06T05:25:50.255Z,17.73
2022-09-06T05:27:23.231Z,14.23
2022-09-06T05:28:56.346Z,16.17
2022-09-06T05:30:29.439Z,14.45
2022-09-06T05:32:02.729Z,15.85
2022-09-06T05:33:36.047Z,16.40
2022-09-06T05:38:16.088Z,14.48
2022-09-06T05:39:50.627Z,14.45
2022-09-06T05:41:24.514Z,15.32
2022-09-06T05:42:59.034Z,16.67
2022-09-06T05:44:32.017Z,20.08
2022-09-06T05:46:05.273Z,19.70
2022-09-06T05:47:38.494Z,14.63
2022-09-06T05:50:44.842Z,14.13
2022-09-06T05:52:18.387Z,16.90
2022-09-06T05:53:51.634Z,15.40
2022-09-06T05:56:59.079Z,18.25
2022-09-06T05:58:32.511Z,16.70
2022-09-06T06:00:12.586Z,16.63
2022-09-06T06:01:50.422Z,17.45
2022-09-06T06:03:23.414Z,17.67
2022-09-06T06:04:56.393Z,17.55
2022-09-06T06:06:31.314Z,17.55
2022-09-06T06:08:04.502Z,16.02
2022-09-06T06:11:11.794Z,17.83
2022-09-06T06:12:45.077Z,17.10
2022-09-06T06:14:18.159Z,19.02
2022-09-06T06:15:51.187Z,14.45
2022-09-06T06:17:24.592Z,16.20
2022-09-06T06:18:57.731Z,17.45
2022-09-06T06:20:30.739Z,16.98
2022-09-06T06:22:04.776Z,16.90
2022-09-06T06:23:37.826Z,17.58
2022-09-06T06:25:12.639Z,17.40
2022-09-06T06:26:47.118Z,15.82
2022-09-06T06:28:19.161Z,16.77
2022-09-06T06:29:52.683Z,16.00
2022-09-06T06:31:25.925Z,18.65
2022-09-06T06:32:59.208Z,15.98
2022-09-06T06:34:32.277Z,16.17
2022-09-06T06:36:07.559Z,16.08
2022-09-06T06:37:42.280Z,18.60
2022-09-06T06:39:19.945Z,18.77
2022-09-06T06:40:57.211Z,18.02
2022-09-06T06:42:34.483Z,16.50
2022-09-06T06:44:07.807Z,15.55
2022-09-06T06:45:43.711Z,15.23
2022-09-06T06:47:16.780Z,14.38
2022-09-06T06:48:54.546Z,14.35
2022-09-06T06:50:28.011Z,14.20
2022-09-06T06:52:00.991Z,14.65
2022-09-06T06:53:35.342Z,14.40
2022-09-06T06:55:08.867Z,13.40
2022-09-06T06:56:42.245Z,15.90
2022-09-06T06:58:16.906Z,14.80
2022-09-06T06:59:49.901Z,14.55
2022-09-06T07:01:23.859Z,13.23
2022-09-06T07:02:57.117Z,14.38
2022-09-06T07:07:42.977Z,14.27
2022-09-06T07:09:16.212Z,15.38
2022-09-06T07:10:49.212Z,16.58
2022-09-06T07:12:22.205Z,14.27
2022-09-06T07:13:56.582Z,14.52
2022-09-06T07:15:30.469Z,14.20
2022-09-06T07:17:07.434Z,13.90
2022-09-06T07:18:43.011Z,12.57
2022-09-06T07:20:16.590Z,12.32
2022-09-06T07:21:49.737Z,12.48
2022-09-06T07:25:21.530Z,12.52
2022-09-06T07:28:48.038Z,14.07
2022-09-06T07:30:22.548Z,14.60
2022-09-06T07:32:13.224Z,13.57
2022-09-06T07:33:46.241Z,12.30
2022-09-06T07:35:20.406Z,14.27
2022-09-06T07:36:53.971Z,11.60
2022-09-06T07:38:27.786Z,12.43
2022-09-06T07:40:00.912Z,12.02
2022-09-06T07:43:06.931Z,11.10
2022-09-06T07:46:16.450Z,10.90
2022-09-06T07:49:34.229Z,13.55
2022-09-06T07:51:09.126Z,13.02
2022-09-06T07:54:35.185Z,13.70
2022-09-06T07:57:41.901Z,15.63
2022-09-06T07:59:15.105Z,11.95
2022-09-06T08:00:48.125Z,12.85
2022-09-06T08:02:22.792Z,13.07
2022-09-06T08:03:55.958Z,11.18
2022-09-06T08:09:11.745Z,12.88
2022-09-06T08:10:44.780Z,12.88
2022-09-06T08:12:22.026Z,11.55
2022-09-06T08:14:00.109Z,12.65
2022-09-06T08:15:33.593Z,11.38
2022-09-06T08:17:06.973Z,12.05
2022-09-06T08:18:43.185Z,11.68
2022-09-06T08:20:18.700Z,12.15
2022-09-06T08:21:54.846Z,13.63
2022-09-06T08:23:29.194Z,11.52
2022-09-06T08:25:02.357Z,11.65
2022-09-06T08:28:09.584Z,11.48
2022-09-06T08:29:42.638Z,15.35
2022-09-06T08:32:51.621Z,12.82
2022-09-06T08:34:26.222Z,14.13
2022-09-06T08:35:59.768Z,12.70
2022-09-06T08:37:35.443Z,12.77
2022-09-06T08:39:10.482Z,12.13
2022-09-06T08:40:43.557Z,13.23
2022-09-06T08:42:16.607Z,11.68
2022-09-06T08:45:24.964Z,11.35
2022-09-06T08:47:01.402Z,11.65
2022-09-06T08:48:39.725Z,10.60
2022-09-06T08:50:14.248Z,11.05
2022-09-06T08:52:22.211Z,12.23
2022-09-06T08:54:07.216Z,10.25
2022-09-06T08:55:46.740Z,12.60
2022-09-06T08:57:40.154Z,12.25
2022-09-06T08:59:17.578Z,14.43
2022-09-06T09:00:58.574Z,11.68
2022-09-06T09:02:44.045Z,12.15
2022-09-06T09:04:21.520Z,11.63
2022-09-06T09:05:55.935Z,12.13
2022-09-06T09:07:39.627Z,12.63
2022-09-06T09:09:16.001Z,10.73
2022-09-06T09:10:51.133Z,12.63
2022-09-06T09:12:26.173Z,12.32
2022-09-06T09:14:04.441Z,12.57
2022-09-06T09:15:40.408Z,14.95
2022-09-06T09:17:20.291Z,14.18
2022-09-06T09:18:57.642Z,15.45
2022-09-06T09:20:30.902Z,13.90
2022-09-06T09:22:05.434Z,13.43
2022-09-06T09:23:38.867Z,12.57
2022-09-06T09:25:18.993Z,12.77
2022-09-06T09:26:56.292Z,12.82
2022-09-06T09:28:29.505Z,13.48
2022-09-06T09:31:59.914Z,13.90
2022-09-06T09:33:36.719Z,14.65
2022-09-06T09:35:24.917Z,13.32
2022-09-06T09:39:17.152Z,11.90
2022-09-06T09:40:55.743Z,11.82
2022-09-06T09:42:32.310Z,15.70
2022-09-06T09:44:08.497Z,11.63
2022-09-06T09:45:41.802Z,14.90
2022-09-06T09:47:26.340Z,12.73
2022-09-06T09:49:05.142Z,12.82
2022-09-06T09:50:38.224Z,13.65
2022-09-06T09:53:53.527Z,14.82
2022-09-06T09:55:29.222Z,14.95
2022-09-06T09:57:04.479Z,15.52
2022-09-06T09:58:38.395Z,12.25
2022-09-06T10:00:13.428Z,13.55
2022-09-06T10:01:46.453Z,12.77
2022-09-06T10:03:24.046Z,12.15
2022-09-06T10:05:03.175Z,11.32
2022-09-06T10:10:08.887Z,14.57
2022-09-06T10:11:49.732Z,13.00
2022-09-06T10:13:26.571Z,11.02
2022-09-06T10:15:03.575Z,11.32
2022-09-06T10:16:44.638Z,10.00
2022-09-06T10:18:29.215Z,10.30
2022-09-06T10:20:07.056Z,10.43
2022-09-06T10:21:40.043Z,10.65
2022-09-06T10:25:46.365Z,9.85
2022-09-06T10:27:27.888Z,11.23
2022-09-06T10:29:05.912Z,9.10
2022-09-06T10:30:47.738Z,9.55
2022-09-06T10:32:41.583Z,8.40
2022-09-06T10:34:46.834Z,10.27
2022-09-06T10:36:27.450Z,11.10
2022-09-06T10:38:16.836Z,9.82
2022-09-06T10:39:54.198Z,9.20
2022-09-06T10:41:40.692Z,9.55
2022-09-06T10:43:19.953Z,9.73
2022-09-06T10:45:16.484Z,8.63
2022-09-06T10:46:54.737Z,8.25
2022-09-06T10:48:30.688Z,9.27
2022-09-06T10:50:06.977Z,10.00
2022-09-06T10:51:45.688Z,8.02
2022-09-06T10:53:31.753Z,9.95
2022-09-06T10:55:06.466Z,10.75
2022-09-06T10:56:44.421Z,9.20
2022-09-06T10:58:24.346Z,9.15
2022-09-06T11:00:03.793Z,9.30
2022-09-06T11:01:41.395Z,7.03
2022-09-06T11:07:20.914Z,7.60
2022-09-06T11:08:59.640Z,7.35
2022-09-06T11:10:35.315Z,7.35
2022-09-06T11:12:14.654Z,8.48
2022-09-06T11:13:48.307Z,7.90
2022-09-06T11:15:23.851Z,9.13
2022-09-06T11:17:01.591Z,6.22
2022-09-06T11:18:40.069Z,6.65
2022-09-06T11:20:18.900Z,7.07
2022-09-06T11:22:34.091Z,8.95
2022-09-06T11:24:13.564Z,9.52
2022-09-06T11:26:22.022Z,6.20
2022-09-06T11:27:58.765Z,7.68
2022-09-06T11:29:34.140Z,6.38
2022-09-06T11:33:24.245Z,6.65
2022-09-06T11:34:58.787Z,6.55
2022-09-06T11:36:37.792Z,6.32
2022-09-06T11:38:21.970Z,7.05
2022-09-06T11:42:01.773Z,6.78
2022-09-06T11:43:48.841Z,7.63
2022-09-06T11:45:39.588Z,7.32
2022-09-06T11:47:39.194Z,6.22
2022-09-06T11:49:30.938Z,7.28
2022-09-06T11:51:10.861Z,6.88
2022-09-06T11:53:00.967Z,8.68
2022-09-06T11:54:44.424Z,6.07
2022-09-06T11:56:30.496Z,6.65
2022-09-06T11:58:07.256Z,7.22
2022-09-06T11:59:50.771Z,7.05
2022-09-06T12:01:39.143Z,5.47
2022-09-06T12:04:07.230Z,6.90
2022-09-06T12:06:15.268Z,7.15
2022-09-06T12:08:14.520Z,6.93
2022-09-06T12:09:47.924Z,7.45
2022-09-06T12:11:30.658Z,6.78
2022-09-06T12:13:41.745Z,8.48
2022-09-06T12:15:29.937Z,8.25
2022-09-06T12:17:27.485Z,6.88
2022-09-06T12:19:03.784Z,7.85
2022-09-06T12:21:02.375Z,6.75
2022-09-06T12:23:05.367Z,6.90
2022-09-06T12:25:05.949Z,8.05
2022-09-06T12:26:55.341Z,7.57
2022-09-06T12:28:49.844Z,11.57
2022-09-06T12:30:37.433Z,9.75
2022-09-06T12:32:10.524Z,7.35
2022-09-06T12:33:44.192Z,7.85
2022-09-06T12:37:14.213Z,6.95
2022-09-06T12:38:58.759Z,6.68
2022-09-06T12:40:34.948Z,7.18
2022-09-06T12:42:13.728Z,8.48
2022-09-06T12:43:46.804Z,8.63
2022-09-06T12:45:23.997Z,9.57
2022-09-06T12:47:07.554Z,7.85
2022-09-06T12:48:44.371Z,8.02
2022-09-06T12:50:20.295Z,6.82
2022-09-06T12:52:07.617Z,7.60
2022-09-06T12:53:40.695Z,7.32
2022-09-06T12:55:22.168Z,7.15
2022-09-06T12:57:12.095Z,7.13
2022-09-06T12:58:45.270Z,7.97
2022-09-06T13:00:19.504Z,7.65
2022-09-06T13:02:00.589Z,8.50
2022-09-06T13:03:40.291Z,8.25
2022-09-06T13:05:14.568Z,8.18
2022-09-06T13:06:49.071Z,8.60
2022-09-06T13:08:28.648Z,6.93
2022-09-06T13:10:03.274Z,6.32
2022-09-06T13:11:39.652Z,6.50
2022-09-06T13:13:18.703Z,8.05
2022-09-06T13:14:54.244Z,7.70
2022-09-06T13:16:31.218Z,6.80
2022-09-06T13:18:27.243Z,7.15
2022-09-06T13:20:12.983Z,6.97
2022-09-06T13:21:47.125Z,6.38
2022-09-06T13:23:22.253Z,9.23
2022-09-06T13:24:57.748Z,7.78
2022-09-06T13:26:36.983Z,7.40
2022-09-06T13:28:10.095Z,9.15
2022-09-06T13:29:56.148Z,8.80
2022-09-06T13:31:34.982Z,7.45
2022-09-06T13:33:09.232Z,7.78
2022-09-06T13:34:53.763Z,7.50
2022-09-06T13:36:30.744Z,7.97
2022-09-06T13:38:24.261Z,6.93
2022-09-06T13:39:59.319Z,8.02
2022-09-06T13:41:42.335Z,6.53
2022-09-06T13:43:16.015Z,11.00
2022-09-06T13:44:49.067Z,8.65
2022-09-06T13:46:22.068Z,5.97
2022-09-06T13:48:07.901Z,7.65
2022-09-06T13:49:48.448Z,7.15
2022-09-06T13:51:21.568Z,7.20
2022-09-06T13:52:55.965Z,7.32
2022-09-06T13:54:29.585Z,8.60
2022-09-06T13:56:02.783Z,23.27
2022-09-06T13:57:35.899Z,8.13
2022-09-06T13:59:10.975Z,9.00
2022-09-06T14:00:44.275Z,7.10
2022-09-06T14:02:19.442Z,7.47
2022-09-06T14:03:52.714Z,7.18
2022-09-06T14:05:25.679Z,7.75
2022-09-06T14:06:59.090Z,11.73
2022-09-06T14:08:49.571Z,7.97
2022-09-06T14:10:26.970Z,7.60
2022-09-06T14:12:00.709Z,7.07
2022-09-06T14:13:33.943Z,8.63
2022-09-06T14:15:08.056Z,6.57
2022-09-06T14:16:41.298Z,9.20
2022-09-06T14:18:14.709Z,6.43
2022-09-06T14:19:50.298Z,8.13
2022-09-06T14:21:23.729Z,6.50
2022-09-06T14:22:56.812Z,6.72
2022-09-06T14:24:31.569Z,8.57
2022-09-06T14:26:05.054Z,8.32
2022-09-06T14:27:38.231Z,6.80
2022-09-06T14:29:11.290Z,9.32
2022-09-06T14:30:44.430Z,7.70
2022-09-06T14:32:22.502Z,7.45
2022-09-06T14:33:57.828Z,7.68
2022-09-06T14:35:32.838Z,8.82
2022-09-06T14:37:08.332Z,7.22
2022-09-06T14:38:45.784Z,8.27
2022-09-06T14:40:20.421Z,8.73
2022-09-06T14:41:54.005Z,8.63
2022-09-06T14:43:27.264Z,8.20
2022-09-06T14:45:00.743Z,7.00
2022-09-06T14:46:35.409Z,7.70
2022-09-06T14:48:08.526Z,8.50
2022-09-06T14:49:41.704Z,8.88
2022-09-06T14:51:19.051Z,8.43
2022-09-06T14:52:52.223Z,12.10
2022-09-06T14:54:29.154Z,5.82
2022-09-06T14:56:05.359Z,7.47
2022-09-06T14:57:38.675Z,7.40
2022-09-06T14:59:12.157Z,8.80
2022-09-06T15:00:46.641Z,8.77
2022-09-06T15:02:19.984Z,8.02
2022-09-06T15:03:56.606Z,7.95
2022-09-06T15:05:29.776Z,6.68
2022-09-06T15:07:03.185Z,6.43
2022-09-06T15:08:36.657Z,8.60
2022-09-06T15:10:10.278Z,7.95
2022-09-06T15:11:46.021Z,5.90
2022-09-06T15:13:19.692Z,6.60
2022-09-06T15:14:52.936Z,7.47
2022-09-06T15:16:26.143Z,7.80
2022-09-06T15:17:59.582Z,7.40
2022-09-06T15:19:36.275Z,7.22
2022-09-06T15:21:14.438Z,6.70
2022-09-06T15:22:56.376Z,5.95
2022-09-06T15:24:42.805Z,5.75
2022-09-06T15:26:16.619Z,7.68
2022-09-06T15:27:51.139Z,7.47
2022-09-06T15:29:24.410Z,6.65
2022-09-06T15:30:57.533Z,6.18
2022-09-06T15:32:30.633Z,7.95
2022-09-06T15:34:02.934Z,9.20
2022-09-06T15:35:36.567Z,6.90
2022-09-06T15:37:09.945Z,8.23
2022-09-06T15:38:45.000Z,7.60
2022-09-06T15:40:19.984Z,7.45
2022-09-06T15:41:54.516Z,7.93
2022-09-06T15:43:29.125Z,6.88
2022-09-06T15:45:02.597Z,7.45
2022-09-06T15:46:44.728Z,6.72
2022-09-06T15:48:18.776Z,8.32
2022-09-06T15:49:52.637Z,7.95
2022-09-06T15:51:25.764Z,9.88
2022-09-06T15:52:58.876Z,8.82
2022-09-06T15:54:49.628Z,9.40
2022-09-06T15:56:22.937Z,8.18
2022-09-06T15:57:55.040Z,11.77
2022-09-06T15:59:29.464Z,10.75
2022-09-06T16:01:04.830Z,8.27
2022-09-06T16:02:38.145Z,8.85
2022-09-06T16:04:11.457Z,7.07
2022-09-06T16:07:41.013Z,6.93
2022-09-06T16:09:15.586Z,8.15
2022-09-06T16:10:48.541Z,8.07
2022-09-06T16:13:54.719Z,7.22
2022-09-06T16:15:29.397Z,7.25
2022-09-06T16:17:02.641Z,7.78
2022-09-06T16:18:38.029Z,7.78
2022-09-06T16:20:11.687Z,7.00
2022-09-06T16:21:45.200Z,4.95
2022-09-06T16:23:18.569Z,5.40
2022-09-06T16:24:51.730Z,6.25
2022-09-06T16:26:26.700Z,6.55
2022-09-06T16:28:00.837Z,5.80
2022-09-06T16:29:34.409Z,6.28
2022-09-06T16:31:10.557Z,7.22
2022-09-06T16:32:43.755Z,6.75
2022-09-06T16:34:17.272Z,7.25
2022-09-06T16:35:50.346Z,6.85
2022-09-06T16:37:23.463Z,6.68
2022-09-06T16:38:57.671Z,6.88
2022-09-06T16:40:30.799Z,7.65
2022-09-06T16:42:04.451Z,6.53
2022-09-06T16:43:36.950Z,5.28
2022-09-06T16:45:12.670Z,6.53
2022-09-06T16:46:48.510Z,6.43
2022-09-06T16:48:21.681Z,8.00
2022-09-06T16:49:54.849Z,8.10
2022-09-06T16:51:28.542Z,8.55
2022-09-06T16:53:01.660Z,9.70
2022-09-06T16:54:34.736Z,17.58
2022-09-06T16:56:08.405Z,10.27
2022-09-06T16:57:41.539Z,8.73
2022-09-06T16:59:17.071Z,8.48
2022-09-06T17:00:51.910Z,7.40
2022-09-06T17:02:29.446Z,7.35
2022-09-06T17:04:04.097Z,6.70
2022-09-06T17:05:37.402Z,9.93
2022-09-06T17:07:10.497Z,7.03
2022-09-06T17:08:43.654Z,7.70
2022-09-06T17:10:16.910Z,7.78
2022-09-06T17:11:50.872Z,8.07
2022-09-06T17:13:23.983Z,7.65
2022-09-06T17:14:56.996Z,9.07
2022-09-06T17:16:47.640Z,9.88
2022-09-06T17:18:22.150Z,9.32
2022-09-06T17:19:55.227Z,6.18
2022-09-06T17:21:29.510Z,8.55
2022-09-06T17:23:02.555Z,5.80
2022-09-06T17:24:35.898Z,7.50
2022-09-06T17:26:08.002Z,7.55
2022-09-06T17:27:41.074Z,7.00
2022-09-06T17:29:14.109Z,6.63
2022-09-06T17:30:46.288Z,5.50
2022-09-06T17:32:19.372Z,7.05
2022-09-06T17:35:25.794Z,9.73
2022-09-06T17:38:31.810Z,6.70
2022-09-06T17:40:05.266Z,9.82
2022-09-06T17:41:39.592Z,8.98
2022-09-06T17:43:15.561Z,8.70
2022-09-06T17:44:48.632Z,12.32
2022-09-06T17:49:30.597Z,10.68
2022-09-06T17:51:08.080Z,7.80
2022-09-06T17:52:41.939Z,10.07
2022-09-06T17:54:16.119Z,11.32
2022-09-06T17:55:52.011Z,12.07
2022-09-06T17:57:25.155Z,8.85
2022-09-06T18:00:32.674Z,9.73
2022-09-06T18:02:06.155Z,14.48
2022-09-06T18:03:39.446Z,15.30
2022-09-06T18:05:13.923Z,13.95
2022-09-06T18:06:47.840Z,12.65
2022-09-06T18:08:22.914Z,11.35
2022-09-06T18:09:56.310Z,12.63
2022-09-06T18:11:31.885Z,14.60
2022-09-06T18:13:05.830Z,11.90
2022-09-06T18:14:39.170Z,13.43
2022-09-06T18:16:12.686Z,13.52
2022-09-06T18:17:45.890Z,13.27
2022-09-06T18:20:53.790Z,15.82
2022-09-06T18:22:27.062Z,14.38
2022-09-06T18:24:00.343Z,13.35
2022-09-06T18:25:33.466Z,15.05
2022-09-06T18:28:40.414Z,12.88
2022-09-06T18:30:15.100Z,15.43
2022-09-06T18:31:48.419Z,12.95
2022-09-06T18:33:24.454Z,16.02
2022-09-06T18:34:57.591Z,14.52
2022-09-06T18:38:05.924Z,13.27
2022-09-06T18:39:40.421Z,19.30
2022-09-06T18:41:35.183Z,17.30
2022-09-06T18:43:07.314Z,12.85
2022-09-06T18:44:40.882Z,10.75
2022-09-06T18:46:16.990Z,11.32
2022-09-06T18:47:50.588Z,11.93
2022-09-06T18:49:23.685Z,10.80
2022-09-06T18:52:35.033Z,9.88
2022-09-06T18:54:08.533Z,11.13
2022-09-06T18:55:43.564Z,11.85
2022-09-06T18:57:17.285Z,12.45
2022-09-06T18:58:52.093Z,10.55
2022-09-06T19:00:26.388Z,11.63
2022-09-06T19:01:59.684Z,11.05
2022-09-06T19:03:33.968Z,11.93
2022-09-06T19:05:08.404Z,10.45
2022-09-06T19:06:43.322Z,9.65
2022-09-06T19:08:19.026Z,9.98
2022-09-06T19:09:52.219Z,9.98
2022-09-06T19:11:25.422Z,10.02
2022-09-06T19:14:31.464Z,9.95
2022-09-06T19:17:38.849Z,10.05
2022-09-06T19:19:13.659Z,11.05
2022-09-06T19:20:56.960Z,13.13
2022-09-06T19:22:30.103Z,12.70
2022-09-06T19:25:39.281Z,12.85
2022-09-06T19:27:12.888Z,12.77
2022-09-06T19:28:50.507Z,11.20
2022-09-06T19:30:23.695Z,11.07
2022-09-06T19:31:57.223Z,9.57
2022-09-06T19:33:35.947Z,8.50
2022-09-06T19:35:10.346Z,8.57
2022-09-06T19:36:44.506Z,10.32
2022-09-06T19:38:17.887Z,10.38
2022-09-06T19:39:53.101Z,10.23
2022-09-06T19:41:27.322Z,11.27
2022-09-06T19:43:00.707Z,10.80
2022-09-06T19:44:33.962Z,10.30
2022-09-06T19:46:09.027Z,10.02
2022-09-06T19:47:42.288Z,11.68
2022-09-06T19:49:16.565Z,9.40
2022-09-06T19:50:50.056Z,9.63
2022-09-06T19:52:25.725Z,11.77
2022-09-06T19:53:59.999Z,11.52
2022-09-06T19:55:35.307Z,10.63
2022-09-06T19:57:08.785Z,10.57
2022-09-06T19:58:43.182Z,8.75
2022-09-06T20:00:18.572Z,8.23
2022-09-06T20:01:51.718Z,10.20
2022-09-06T20:04:57.711Z,10.07
2022-09-06T20:08:04.763Z,10.63
2022-09-06T20:09:37.964Z,15.40
2022-09-06T20:12:46.278Z,9.50
2022-09-06T20:15:54.444Z,11.50
2022-09-06T20:17:33.817Z,12.15
2022-09-06T20:19:07.655Z,11.60
2022-09-06T20:20:40.835Z,10.85
2022-09-06T20:23:50.286Z,9.73
2022-09-06T20:25:23.713Z,15.98
2022-09-06T20:26:58.619Z,13.35
2022-09-06T20:28:34.146Z,12.95
2022-09-06T20:30:08.153Z,11.65
2022-09-06T20:31:41.398Z,13.80
2022-09-06T20:33:14.598Z,13.27
2022-09-06T20:36:21.110Z,14.57
2022-09-06T20:37:54.244Z,13.05
2022-09-06T20:41:01.737Z,14.60
2022-09-06T20:42:37.524Z,15.52
2022-09-06T20:44:11.067Z,14.02
2022-09-06T20:45:45.917Z,13.90
2022-09-06T20:47:19.747Z,15.60
2022-09-06T20:49:17.072Z,15.63
2022-09-06T20:50:58.244Z,14.68
2022-09-06T20:52:31.573Z,13.80
2022-09-06T20:54:06.276Z,14.73
2022-09-06T20:55:39.468Z,14.23
2022-09-06T20:58:50.712Z,12.75
2022-09-06T21:00:23.734Z,14.35
2022-09-06T21:01:56.837Z,13.38
2022-09-06T21:05:03.648Z,14.27
2022-09-06T21:06:39.320Z,13.23
2022-09-06T21:08:11.824Z,12.85
2022-09-06T21:09:44.884Z,13.30
2022-09-06T21:11:18.706Z,13.50
2022-09-06T21:12:51.969Z,11.25
2022-09-06T21:14:26.492Z,12.68
2022-09-06T21:15:59.727Z,10.93
2022-09-06T21:19:07.295Z,10.32
2022-09-06T21:20:40.402Z,12.32
2022-09-06T21:22:13.644Z,13.35
2022-09-06T21:23:46.856Z,14.65
2022-09-06T21:26:53.163Z,9.90
2022-09-06T21:28:28.674Z,9.90
2022-09-06T21:30:03.308Z,10.68
2022-09-06T21:31:38.119Z,10.43
2022-09-06T21:33:11.192Z,12.57
2022-09-06T21:34:44.390Z,10.00
2022-09-06T21:37:53.214Z,11.77
2022-09-06T21:39:26.451Z,10.90
2022-09-06T21:40:59.699Z,9.85
2022-09-06T21:44:06.986Z,10.60
2022-09-06T21:45:41.391Z,10.88
2022-09-06T21:47:14.710Z,10.20
2022-09-06T21:48:48.755Z,9.82
2022-09-06T21:50:22.246Z,12.07
2022-09-06T21:51:55.332Z,11.93
2022-09-06T21:53:27.452Z,10.68
2022-09-06T21:55:00.450Z,10.75
2022-09-06T21:56:35.056Z,13.88
2022-09-06T21:58:08.265Z,12.38
2022-09-06T22:01:16.040Z,12.55
2022-09-06T22:02:49.737Z,11.68
2022-09-06T22:04:23.192Z,12.00
2022-09-06T22:05:56.650Z,13.63
2022-09-06T22:07:29.680Z,13.15
2022-09-06T22:09:04.408Z,13.25
2022-09-06T22:10:37.582Z,14.63
2022-09-06T22:14:20.875Z,13.93
2022-09-06T22:15:53.914Z,14.25
2022-09-06T22:17:28.416Z,14.45
2022-09-06T22:19:01.679Z,14.43
2022-09-06T22:22:08.028Z,11.80
2022-09-06T22:25:13.236Z,12.82
2022-09-06T22:28:19.130Z,12.82
2022-09-06T22:29:52.252Z,11.98
2022-09-06T22:31:26.701Z,14.43
2022-09-06T22:33:01.727Z,13.88
2022-09-06T22:34:34.885Z,12.20
2022-09-06T22:36:07.482Z,12.30
2022-09-06T22:37:40.621Z,14.35
2022-09-06T22:39:13.850Z,13.35
2022-09-06T22:40:45.952Z,14.90
2022-09-06T22:42:19.050Z,14.63
2022-09-06T22:43:52.244Z,15.38
2022-09-06T22:46:58.599Z,17.48
2022-09-06T22:48:33.355Z,16.80
2022-09-06T22:50:07.577Z,14.60
2022-09-06T22:51:40.624Z,16.83
2022-09-06T22:53:12.681Z,16.90
2022-09-06T22:54:45.740Z,16.48
2022-09-06T22:56:21.224Z,15.73
2022-09-06T22:57:54.324Z,16.10
2022-09-06T22:59:26.446Z,15.82
2022-09-06T23:01:07.322Z,13.98
2022-09-06T23:02:40.509Z,16.75
2022-09-06T23:04:14.894Z,17.38
2022-09-06T23:05:47.961Z,15.20